createdAt,value
2022-11-03T00:00:46.411Z,5.43
2022-11-03T00:03:12.958Z,4.03
2022-11-03T00:05:59.599Z,3.67
2022-11-03T00:08:31.682Z,4.63
2022-11-03T00:11:20.259Z,4.53
2022-11-03T00:13:47.079Z,3.73
2022-11-03T00:16:13.782Z,5.33
2022-11-03T00:18:40.386Z,4.33
2022-11-03T00:21:18.420Z,2.97
2022-11-03T00:23:48.767Z,3.87
2022-11-03T00:26:23.552Z,2.70
2022-11-03T00:28:52.497Z,2.27
2022-11-03T00:31:20.673Z,1.93
2022-11-03T00:33:56.605Z,6.27
2022-11-03T00:36:32.227Z,2.60
2022-11-03T00:44:21.357Z,3.70
2022-11-03T00:46:53.542Z,3.17
2022-11-03T00:49:22.218Z,2.13
2022-11-03T00:51:50.900Z,10.93
2022-11-03T00:54:22.518Z,2.53
2022-11-03T00:56:54.269Z,8.90
2022-11-03T00:59:25.801Z,4.83
2022-11-03T01:02:02.506Z,4.03
2022-11-03T01:04:55.603Z,7.93
2022-11-03T01:07:26.000Z,4.93
2022-11-03T01:09:56.234Z,3.23
2022-11-03T01:12:28.803Z,3.17
2022-11-03T01:14:59.763Z,1.90
2022-11-03T01:17:36.231Z,6.43
2022-11-03T01:20:03.730Z,6.03
2022-11-03T01:22:31.850Z,1.80
2022-11-03T01:25:04.312Z,5.73
2022-11-03T01:27:35.977Z,6.70
2022-11-03T01:30:02.749Z,6.83
2022-11-03T01:32:32.144Z,4.30
2022-11-03T01:35:00.472Z,4.53
2022-11-03T01:37:34.296Z,7.17
2022-11-03T01:40:01.715Z,6.30
2022-11-03T01:42:40.996Z,4.73
2022-11-03T01:45:13.568Z,8.27
2022-11-03T01:47:49.551Z,9.33
2022-11-03T01:50:19.898Z,2.83
2022-11-03T01:52:59.870Z,8.90
2022-11-03T01:55:41.744Z,4.20
2022-11-03T01:58:22.234Z,5.70
2022-11-03T02:01:03.799Z,4.67
2022-11-03T02:03:45.202Z,3.37
2022-11-03T02:06:12.338Z,5.80
2022-11-03T02:08:45.562Z,5.70
2022-11-03T02:11:32.065Z,4.53
2022-11-03T02:14:11.264Z,7.77
2022-11-03T02:16:43.663Z,9.20
2022-11-03T02:19:23.445Z,6.53
2022-11-03T02:22:14.489Z,5.00
2022-11-03T02:24:54.026Z,4.13
2022-11-03T02:27:33.229Z,5.97
2022-11-03T02:30:10.859Z,5.43
2022-11-03T02:32:50.211Z,5.50
2022-11-03T02:35:22.812Z,4.87
2022-11-03T02:37:57.266Z,4.50
2022-11-03T02:40:39.205Z,5.87
2022-11-03T02:43:19.956Z,8.13
2022-11-03T02:45:50.390Z,7.23
2022-11-03T02:48:23.765Z,6.87
2022-11-03T02:50:50.347Z,6.33
2022-11-03T02:53:20.025Z,5.10
2022-11-03T02:56:04.585Z,5.50
2022-11-03T02:58:55.936Z,6.87
2022-11-03T03:01:50.648Z,5.33
2022-11-03T03:04:45.981Z,6.73
2022-11-03T03:07:41.248Z,5.83
2022-11-03T03:10:17.542Z,8.93
2022-11-03T03:12:55.493Z,5.90
2022-11-03T03:15:47.885Z,8.80
2022-11-03T03:18:23.984Z,6.37
2022-11-03T03:21:13.215Z,6.80
2022-11-03T03:24:01.708Z,11.13
2022-11-03T03:26:50.165Z,8.47
2022-11-03T03:29:28.742Z,7.60
2022-11-03T03:32:00.582Z,6.63
2022-11-03T03:34:41.472Z,8.67
2022-11-03T03:37:16.011Z,10.67
2022-11-03T03:39:49.548Z,6.83
2022-11-03T03:42:22.972Z,7.60
2022-11-03T03:44:57.105Z,9.00
2022-11-03T03:50:13.612Z,7.10
2022-11-03T03:52:53.669Z,6.93
2022-11-03T03:55:22.339Z,11.93
2022-11-03T03:57:49.009Z,7.70
2022-11-03T04:00:20.325Z,6.73
2022-11-03T04:02:46.927Z,4.70
2022-11-03T04:05:22.795Z,12.03
2022-11-03T04:07:54.712Z,11.63
2022-11-03T04:10:27.371Z,10.57
2022-11-03T04:13:12.520Z,14.23
2022-11-03T04:16:13.162Z,7.90
2022-11-03T04:18:58.141Z,9.97
2022-11-03T04:22:03.119Z,7.73
2022-11-03T04:24:36.369Z,9.13
2022-11-03T04:27:28.159Z,8.60
2022-11-03T04:30:09.695Z,6.93
2022-11-03T04:32:44.531Z,9.23
2022-11-03T04:35:31.401Z,6.23
2022-11-03T04:38:26.632Z,8.70
2022-11-03T04:41:03.149Z,11.53
2022-11-03T04:46:26.059Z,7.70
2022-11-03T04:54:31.898Z,11.23
2022-11-03T04:57:01.080Z,6.83
2022-11-03T05:02:17.663Z,11.97
2022-11-03T05:04:44.433Z,11.87
2022-11-03T05:07:41.991Z,11.07
2022-11-03T05:10:19.310Z,8.50
2022-11-03T05:13:01.133Z,12.53
2022-11-03T05:15:28.764Z,9.40
2022-11-03T05:18:00.996Z,8.90
2022-11-03T05:20:48.139Z,16.37
2022-11-03T05:26:13.421Z,14.23
2022-11-03T05:28:45.414Z,14.73
2022-11-03T05:31:41.751Z,13.53
2022-11-03T05:34:46.237Z,26.50
2022-11-03T05:37:41.511Z,21.23
2022-11-03T05:40:25.708Z,25.63
2022-11-03T05:43:01.568Z,10.37
2022-11-03T05:45:37.422Z,15.27
2022-11-03T05:51:07.016Z,10.87
2022-11-03T05:53:53.765Z,19.13
2022-11-03T06:01:55.286Z,16.60
2022-11-03T06:07:34.903Z,23.10
2022-11-03T06:10:02.839Z,58.10
2022-11-03T06:15:33.071Z,23.77
2022-11-03T06:18:02.235Z,18.77
2022-11-03T06:20:32.193Z,13.10
2022-11-03T06:23:03.315Z,15.93
2022-11-03T06:25:36.347Z,12.30
2022-11-03T06:28:21.938Z,14.27
2022-11-03T06:30:56.966Z,18.07
2022-11-03T06:33:37.633Z,17.17
2022-11-03T06:36:22.041Z,11.90
2022-11-03T06:38:58.737Z,13.20
2022-11-03T06:41:36.203Z,14.87
2022-11-03T06:44:21.475Z,15.57
2022-11-03T06:46:48.098Z,18.53
2022-11-03T06:49:28.614Z,16.83
2022-11-03T06:52:01.797Z,18.37
2022-11-03T06:54:32.725Z,23.07
2022-11-03T06:57:06.939Z,16.03
2022-11-03T07:02:56.848Z,10.53
2022-11-03T07:05:39.993Z,13.20
2022-11-03T07:08:44.057Z,11.57
2022-11-03T07:11:27.888Z,13.77
2022-11-03T07:14:11.106Z,22.33
2022-11-03T07:16:48.086Z,17.00
2022-11-03T07:19:39.966Z,20.77
2022-11-03T07:22:36.488Z,11.67
2022-11-03T07:25:08.520Z,17.77
2022-11-03T07:27:40.276Z,18.53
2022-11-03T07:36:19.475Z,16.43
2022-11-03T07:38:56.406Z,15.50
2022-11-03T07:41:37.628Z,18.03
2022-11-03T07:44:06.095Z,17.90
2022-11-03T07:46:32.719Z,23.77
2022-11-03T07:49:07.392Z,17.33
2022-11-03T07:51:43.055Z,17.60
2022-11-03T07:54:17.200Z,16.53
2022-11-03T07:56:56.130Z,16.67
2022-11-03T07:59:44.445Z,12.20
2022-11-03T08:02:19.830Z,12.80
2022-11-03T08:07:40.457Z,17.17
2022-11-03T08:10:13.741Z,13.83
2022-11-03T08:12:46.758Z,21.63
2022-11-03T08:15:19.778Z,17.73
2022-11-03T08:17:57.201Z,21.37
2022-11-03T08:20:27.978Z,14.73
2022-11-03T08:25:56.629Z,21.67
2022-11-03T08:28:30.542Z,23.80
2022-11-03T08:31:11.213Z,18.33
2022-11-03T08:33:39.303Z,19.17
2022-11-03T08:36:10.645Z,16.33
2022-11-03T08:38:37.944Z,17.47
2022-11-03T08:41:10.472Z,25.10
2022-11-03T08:43:37.072Z,15.20
2022-11-03T08:46:15.466Z,16.30
2022-11-03T08:48:50.904Z,17.07
2022-11-03T08:51:22.552Z,14.00
2022-11-03T08:53:55.171Z,16.77
2022-11-03T08:56:30.307Z,23.43
2022-11-03T08:58:57.813Z,16.60
2022-11-03T09:01:31.966Z,21.93
2022-11-03T09:04:00.634Z,24.77
2022-11-03T09:06:37.846Z,12.80
2022-11-03T09:12:01.755Z,14.43
2022-11-03T09:14:35.688Z,17.70
2022-11-03T09:19:31.631Z,12.60
2022-11-03T09:22:03.997Z,16.97
2022-11-03T09:24:40.618Z,18.33
2022-11-03T09:27:07.577Z,17.70
2022-11-03T09:30:11.116Z,14.47
2022-11-03T09:32:35.214Z,17.90
2022-11-03T09:35:10.033Z,17.07
2022-11-03T09:37:38.198Z,18.20
2022-11-03T09:40:15.610Z,19.87
2022-11-03T09:42:46.766Z,14.70
2022-11-03T09:45:18.266Z,19.37
2022-11-03T09:48:00.926Z,17.23
2022-11-03T09:50:31.868Z,19.53
2022-11-03T09:53:09.180Z,15.17
2022-11-03T09:55:43.398Z,19.63
2022-11-03T09:58:20.712Z,17.23
2022-11-03T10:00:58.353Z,14.93
2022-11-03T10:06:25.293Z,34.00
2022-11-03T10:08:52.952Z,12.23
2022-11-03T10:11:29.387Z,17.10
2022-11-03T10:14:04.637Z,14.43
2022-11-03T10:16:31.269Z,15.53
2022-11-03T10:19:01.966Z,14.77
2022-11-03T10:21:37.638Z,13.67
2022-11-03T10:24:06.279Z,19.00
2022-11-03T10:26:47.071Z,11.37
2022-11-03T10:29:34.596Z,11.17
2022-11-03T10:32:10.181Z,19.57
2022-11-03T10:34:39.649Z,20.13
2022-11-03T10:37:44.593Z,14.20
2022-11-03T10:40:53.796Z,14.43
2022-11-03T10:43:29.885Z,14.37
2022-11-03T10:46:36.417Z,18.43
2022-11-03T10:49:14.697Z,13.43
2022-11-03T10:51:49.194Z,12.90
2022-11-03T10:54:24.638Z,14.20
2022-11-03T10:56:52.397Z,11.93
2022-11-03T10:59:31.386Z,5.50
2022-11-03T11:01:59.788Z,7.97
2022-11-03T11:04:33.970Z,11.83
2022-11-03T11:07:12.928Z,8.80
2022-11-03T11:09:44.308Z,7.50
2022-11-03T11:12:28.593Z,7.70
2022-11-03T11:15:08.052Z,9.93
2022-11-03T11:17:37.503Z,11.23
2022-11-03T11:20:19.621Z,9.77
2022-11-03T11:22:51.816Z,9.83
2022-11-03T11:25:29.210Z,9.77
2022-11-03T11:28:03.584Z,8.90
2022-11-03T11:30:39.029Z,6.37
2022-11-03T11:33:15.993Z,8.23
2022-11-03T11:35:44.105Z,8.63
2022-11-03T11:39:05.061Z,9.83
2022-11-03T11:42:18.594Z,9.60
2022-11-03T11:44:56.054Z,7.13
2022-11-03T11:47:33.737Z,4.83
2022-11-03T11:50:15.665Z,6.23
2022-11-03T11:52:51.194Z,7.30
2022-11-03T11:55:21.715Z,10.77
2022-11-03T11:57:51.440Z,11.17
2022-11-03T12:00:27.025Z,10.07
2022-11-03T12:03:00.465Z,8.63
2022-11-03T12:05:45.312Z,5.97
2022-11-03T12:08:19.552Z,7.53
2022-11-03T12:10:53.785Z,6.07
2022-11-03T12:13:47.648Z,11.70
2022-11-03T12:16:29.589Z,13.37
2022-11-03T12:19:03.504Z,7.53
2022-11-03T12:21:59.186Z,11.87
2022-11-03T12:24:35.102Z,6.93
2022-11-03T12:27:03.638Z,6.77
2022-11-03T12:29:30.424Z,11.17
2022-11-03T12:31:56.993Z,7.37
2022-11-03T12:34:29.442Z,8.83
2022-11-03T12:37:02.920Z,7.73
2022-11-03T12:39:32.783Z,3.87
2022-11-03T12:42:11.475Z,12.63
2022-11-03T12:44:47.794Z,7.47
2022-11-03T12:47:18.490Z,11.20
2022-11-03T12:49:49.003Z,10.73
2022-11-03T12:52:22.823Z,5.47
2022-11-03T12:54:51.400Z,6.70
2022-11-03T12:57:17.969Z,13.13
2022-11-03T12:59:52.293Z,8.80
2022-11-03T13:02:19.108Z,6.63
2022-11-03T13:04:46.186Z,11.17
2022-11-03T13:07:25.594Z,8.87
2022-11-03T13:10:02.362Z,10.23
2022-11-03T13:12:39.720Z,13.60
2022-11-03T13:15:14.263Z,8.10
2022-11-03T13:20:34.696Z,11.37
2022-11-03T13:23:22.943Z,8.87
2022-11-03T13:25:57.359Z,6.17
2022-11-03T13:28:31.689Z,16.77
2022-11-03T13:31:07.402Z,15.57
2022-11-03T13:33:38.555Z,9.47
2022-11-03T13:39:07.307Z,12.00
2022-11-03T13:41:38.159Z,13.40
2022-11-03T13:44:06.608Z,8.47
2022-11-03T13:46:42.110Z,10.47
2022-11-03T13:52:06.604Z,10.13
2022-11-03T14:00:28.477Z,11.57
2022-11-03T14:05:47.802Z,16.30
2022-11-03T14:11:00.343Z,9.93
2022-11-03T14:16:07.647Z,9.77
2022-11-03T14:18:37.102Z,11.07
2022-11-03T14:21:33.458Z,6.80
2022-11-03T14:24:11.386Z,15.97
2022-11-03T14:26:42.686Z,12.93
2022-11-03T14:29:16.312Z,10.63
2022-11-03T14:31:46.163Z,20.37
2022-11-03T14:34:22.418Z,17.40
2022-11-03T14:37:06.157Z,9.50
2022-11-03T14:39:44.877Z,15.37
2022-11-03T14:42:22.866Z,11.67
2022-11-03T14:47:29.723Z,11.43
2022-11-03T14:50:01.358Z,15.07
2022-11-03T14:52:37.764Z,9.23
2022-11-03T14:55:09.823Z,14.17
2022-11-03T14:57:36.539Z,10.73
2022-11-03T15:00:10.271Z,12.13
2022-11-03T15:02:45.635Z,14.90
2022-11-03T15:05:46.147Z,10.97
2022-11-03T15:08:21.297Z,23.60
2022-11-03T15:10:55.364Z,25.97
2022-11-03T15:13:25.990Z,21.07
2022-11-03T15:15:52.616Z,19.70
2022-11-03T15:18:26.694Z,18.70
2022-11-03T15:29:21.132Z,21.87
2022-11-03T15:31:54.879Z,14.33
2022-11-03T15:34:21.549Z,18.40
2022-11-03T15:36:54.018Z,14.57
2022-11-03T15:39:24.225Z,10.73
2022-11-03T15:41:50.891Z,13.30
2022-11-03T15:44:30.604Z,10.20
2022-11-03T15:46:57.229Z,13.57
2022-11-03T15:49:33.570Z,24.07
2022-11-03T15:52:00.157Z,9.67
2022-11-03T15:54:42.282Z,20.87
2022-11-03T15:57:43.247Z,13.40
2022-11-03T16:03:12.014Z,14.50
2022-11-03T16:05:47.811Z,8.90
2022-11-03T16:08:23.911Z,11.03
2022-11-03T16:13:48.918Z,12.77
2022-11-03T16:16:26.076Z,7.10
2022-11-03T16:18:52.760Z,4.83
2022-11-03T16:21:26.328Z,13.40
2022-11-03T16:24:02.017Z,20.80
2022-11-03T16:26:29.106Z,25.63
2022-11-03T16:28:55.717Z,16.27
2022-11-03T16:31:29.611Z,14.27
2022-11-03T16:34:07.342Z,17.43
2022-11-03T16:36:47.987Z,13.63
2022-11-03T16:39:20.869Z,22.33
2022-11-03T16:42:00.450Z,19.83
2022-11-03T16:44:37.682Z,12.80
2022-11-03T16:47:09.445Z,29.10
2022-11-03T16:49:41.473Z,25.60
2022-11-03T16:52:11.321Z,27.47
2022-11-03T16:57:19.645Z,17.13
2022-11-03T16:59:50.022Z,20.37
2022-11-03T17:02:16.920Z,15.43
2022-11-03T17:04:50.636Z,24.73
2022-11-03T17:07:20.670Z,19.63
2022-11-03T17:12:36.777Z,34.13
2022-11-03T17:15:14.588Z,23.20
2022-11-03T17:17:41.598Z,20.00
2022-11-03T17:20:09.661Z,21.77
2022-11-03T17:22:47.693Z,13.90
2022-11-03T17:25:14.729Z,15.07
2022-11-03T17:28:00.405Z,20.30
2022-11-03T17:30:38.465Z,20.93
2022-11-03T17:33:16.141Z,32.33
2022-11-03T17:35:54.763Z,20.07
2022-11-03T17:38:25.785Z,25.80
2022-11-03T17:40:57.836Z,20.83
2022-11-03T17:43:31.271Z,22.30
2022-11-03T17:46:33.675Z,16.07
2022-11-03T17:49:13.940Z,19.73
2022-11-03T17:51:43.351Z,14.27
2022-11-03T17:54:16.177Z,18.23
2022-11-03T17:56:42.944Z,16.77
2022-11-03T18:10:13.241Z,19.27
2022-11-03T18:13:33.044Z,20.97
2022-11-03T18:18:48.951Z,16.80
2022-11-03T18:21:26.804Z,11.77
2022-11-03T18:24:01.843Z,16.20
2022-11-03T18:32:02.222Z,13.03
2022-11-03T18:34:35.361Z,16.33
2022-11-03T18:37:03.092Z,15.07
2022-11-03T18:39:29.888Z,11.27
2022-11-03T18:42:20.766Z,12.80
2022-11-03T18:44:48.797Z,22.70
2022-11-03T18:47:15.482Z,19.57
2022-11-03T18:49:49.800Z,19.30
2022-11-03T18:52:19.507Z,16.03
2022-11-03T18:54:50.377Z,14.17
2022-11-03T18:57:36.480Z,17.43
2022-11-03T19:00:15.102Z,18.67
2022-11-03T19:02:44.408Z,14.53
2022-11-03T19:05:22.006Z,15.77
2022-11-03T19:07:50.256Z,13.43
2022-11-03T19:10:26.365Z,18.43
2022-11-03T19:13:05.693Z,16.00
2022-11-03T19:15:41.057Z,16.40
2022-11-03T19:18:10.779Z,13.67
2022-11-03T19:20:45.582Z,12.20
2022-11-03T19:23:18.388Z,25.20
2022-11-03T19:25:46.545Z,20.47
2022-11-03T19:28:25.614Z,16.93
2022-11-03T19:30:57.634Z,15.07
2022-11-03T19:33:39.439Z,20.40
2022-11-03T19:36:06.729Z,19.17
2022-11-03T19:38:39.980Z,13.37
2022-11-03T19:41:43.937Z,13.40
2022-11-03T19:44:22.316Z,13.67
2022-11-03T19:46:56.466Z,13.80
2022-11-03T19:49:23.431Z,16.37
2022-11-03T19:51:50.243Z,11.73
2022-11-03T19:54:21.623Z,13.00
2022-11-03T19:57:01.450Z,22.17
2022-11-03T19:59:33.773Z,19.33
2022-11-03T20:02:00.535Z,11.73
2022-11-03T20:04:27.371Z,13.83
2022-11-03T20:09:37.098Z,14.17
2022-11-03T20:12:14.368Z,15.00
2022-11-03T20:14:47.979Z,14.27
2022-11-03T20:17:22.574Z,13.83
2022-11-03T20:22:38.943Z,12.97
2022-11-03T20:25:16.737Z,16.73
2022-11-03T20:27:48.667Z,17.43
2022-11-03T20:30:18.025Z,14.07
2022-11-03T20:32:48.801Z,18.30
2022-11-03T20:35:24.643Z,14.37
2022-11-03T20:37:55.487Z,19.73
2022-11-03T20:40:32.421Z,19.87
2022-11-03T20:43:11.329Z,19.40
2022-11-03T20:45:48.368Z,21.20
2022-11-03T20:48:17.366Z,23.33
2022-11-03T20:50:44.217Z,13.30
2022-11-03T20:53:23.094Z,15.73
2022-11-03T20:55:52.132Z,23.00
2022-11-03T20:58:18.967Z,12.73
2022-11-03T21:00:55.226Z,16.77
2022-11-03T21:03:58.008Z,15.07
2022-11-03T21:06:28.579Z,13.27
2022-11-03T21:09:07.001Z,9.07
2022-11-03T21:11:51.740Z,10.87
2022-11-03T21:14:34.077Z,19.53
2022-11-03T21:17:19.617Z,13.13
2022-11-03T21:20:01.774Z,18.30
2022-11-03T21:22:54.778Z,16.63
2022-11-03T21:25:28.681Z,13.07
2022-11-03T21:27:55.402Z,14.03
2022-11-03T21:30:26.605Z,13.90
2022-11-03T21:32:55.015Z,15.50
2022-11-03T21:35:35.321Z,15.80
2022-11-03T21:38:06.861Z,16.37
2022-11-03T21:40:44.030Z,15.50
2022-11-03T21:43:30.097Z,12.80
2022-11-03T21:46:28.410Z,14.23
2022-11-03T21:49:24.417Z,13.63
2022-11-03T21:51:51.574Z,8.77
2022-11-03T21:54:19.753Z,11.70
2022-11-03T21:56:46.453Z,13.17
2022-11-03T21:59:13.242Z,13.13
2022-11-03T22:01:40.640Z,13.13
2022-11-03T22:04:07.346Z,15.27
2022-11-03T22:06:47.847Z,8.93
2022-11-03T22:09:21.673Z,10.87
2022-11-03T22:12:00.415Z,14.33
2022-11-03T22:14:29.126Z,14.00
2022-11-03T22:19:54.082Z,18.53
2022-11-03T22:22:44.422Z,13.83
2022-11-03T22:25:35.365Z,13.77
2022-11-03T22:28:02.001Z,18.93
2022-11-03T22:30:52.341Z,12.13
2022-11-03T22:33:24.633Z,11.50
2022-11-03T22:36:10.061Z,16.67
2022-11-03T22:38:57.768Z,14.37
2022-11-03T22:42:03.552Z,12.67
2022-11-03T22:45:01.960Z,16.03
2022-11-03T22:47:37.319Z,8.83
2022-11-03T22:50:09.958Z,15.17
2022-11-03T22:52:41.860Z,11.37
2022-11-03T22:55:08.543Z,11.77
2022-11-03T22:57:40.027Z,12.70
2022-11-03T23:00:07.139Z,14.33
2022-11-03T23:02:33.883Z,15.33
2022-11-03T23:05:01.610Z,14.50
2022-11-03T23:07:38.499Z,12.57
2022-11-03T23:10:23.550Z,14.00
2022-11-03T23:12:55.231Z,10.43
2022-11-03T23:15:39.628Z,15.73
2022-11-03T23:18:31.974Z,11.80
2022-11-03T23:21:07.685Z,13.77
2022-11-03T23:24:02.141Z,8.83
2022-11-03T23:26:29.105Z,11.63
2022-11-03T23:29:00.351Z,13.10
2022-11-03T23:31:31.606Z,13.33
2022-11-03T23:34:01.792Z,11.23
2022-11-03T23:36:35.438Z,15.83
2022-11-03T23:39:03.459Z,8.77
2022-11-03T23:41:30.833Z,11.03
2022-11-03T23:44:07.127Z,16.73
2022-11-03T23:47:00.728Z,12.00
2022-11-03T23:49:30.717Z,15.13
2022-11-03T23:51:57.395Z,17.80
2022-11-03T23:54:25.533Z,13.03
2022-11-03T23:57:17.550Z,11.23
2022-11-03T23:59:53.136Z,14.93
